Time;durP1;ratioP1;P1;durP2;ratioP2;P2;SDS_P1;SDS_P2;PMS_P1;PMS_P2;Temp;Humidity;BMP_temperature;BMP_pressure;BME280_temperature;BME280_humidity;BME280_pressure;Samples;Min_cycle;Max_cycle;Signal;HPM_P1;HPM_P2
2022/06/11 00:00:32;;;;;;;3.80;3.30;;;;;;;19.11;53.42;99383.25;6948783;28;20325;-79
2022/06/11 00:03:57;;;;;;;4.20;3.40;;;;;;;18.97;53.54;99372.88;6948061;28;20231;-79
2022/06/11 00:07:22;;;;;;;3.70;3.00;;;;;;;19.15;52.88;99373.50;6949235;28;20679;-79
2022/06/11 00:10:44;;;;;;;4.07;3.00;;;;;;;19.17;53.38;99384.19;6948161;28;20750;-78
2022/06/11 00:14:06;;;;;;;3.50;3.20;;;;;;;19.29;52.68;99374.03;6948926;28;20244;-78
2022/06/11 00:17:28;;;;;;;3.53;3.23;;;;;;;18.91;53.24;99382.03;6948665;28;20210;-78
2022/06/11 00:20:50;;;;;;;4.77;3.77;;;;;;;18.24;56.17;99385.56;6949726;28;20230;-79
2022/06/11 00:24:13;;;;;;;4.83;3.63;;;;;;;18.68;54.86;99391.19;6952849;28;20308;-79
2022/06/11 00:27:35;;;;;;;4.20;3.40;;;;;;;18.75;54.67;99391.84;6951078;28;20294;-79
2022/06/11 00:30:57;;;;;;;3.83;3.17;;;;;;;18.82;53.53;99384.34;6950527;28;20223;-79
2022/06/11 00:34:19;;;;;;;4.30;3.90;;;;;;;18.11;55.44;99373.00;6951063;28;20250;-79
2022/06/11 00:37:41;;;;;;;6.23;3.80;;;;;;;18.47;55.00;99380.09;6950504;28;20274;-79
2022/06/11 00:41:05;;;;;;;4.10;3.70;;;;;;;18.69;54.54;99378.34;6951166;28;20239;-79
2022/06/11 00:44:27;;;;;;;4.17;3.00;;;;;;;18.67;54.55;99380.47;6950786;28;20270;-79
2022/06/11 00:47:53;;;;;;;6.33;3.40;;;;;;;18.56;54.00;99362.22;6950341;28;20264;-79
2022/06/11 00:51:19;;;;;;;4.37;3.73;;;;;;;18.88;53.59;99377.09;6950705;28;20258;-79
2022/06/11 00:54:43;;;;;;;4.23;3.00;;;;;;;18.63;53.94;99365.66;6949835;28;20191;-79
2022/06/11 00:58:10;;;;;;;3.37;3.00;;;;;;;18.54;54.05;99376.16;6949613;28;20218;-79
2022/06/11 01:01:32;;;;;;;4.13;3.40;;;;;;;18.31;55.29;99378.06;6950510;28;20233;-79
2022/06/11 01:04:55;;;;;;;4.87;3.00;;;;;;;18.41;54.71;99372.84;6951071;28;20298;-79
2022/06/11 01:08:36;;;;;;;3.80;3.13;;;;;;;18.56;54.42;99370.41;6949756;28;20206;-79
2022/06/11 01:12:07;;;;;;;5.03;3.40;;;;;;;18.03;54.75;99365.19;6950379;28;20309;-79
2022/06/11 01:15:33;;;;;;;4.90;3.20;;;;;;;18.40;54.56;99369.28;6950274;28;20895;-79
2022/06/11 01:19:00;;;;;;;3.90;3.60;;;;;;;17.72;56.01;99368.28;6949823;28;20203;-81
2022/06/11 01:22:37;;;;;;;3.93;3.40;;;;;;;17.77;56.73;99359.38;6949450;28;20257;-79
2022/06/11 01:26:07;;;;;;;4.80;3.50;;;;;;;17.83;55.93;99345.63;6945942;28;20289;-78
2022/06/11 01:29:39;;;;;;;3.57;3.00;;;;;;;18.11;55.42;99380.38;6947208;28;20228;-78
2022/06/11 01:33:09;;;;;;;3.93;3.10;;;;;;;18.32;54.59;99349.72;6974648;28;20279;-79
2022/06/11 01:36:34;;;;;;;3.17;2.97;;;;;;;18.32;54.81;99368.81;6974506;28;20212;-78
2022/06/11 01:39:59;;;;;;;7.43;3.20;;;;;;;18.53;54.12;99379.97;6973620;28;20287;-78
2022/06/11 01:43:25;;;;;;;3.40;3.10;;;;;;;18.64;53.91;99376.34;6974249;28;20754;-78
2022/06/11 01:46:50;;;;;;;4.27;3.07;;;;;;;18.63;53.24;99362.94;6973840;28;20220;-78
2022/06/11 01:50:14;;;;;;;4.67;3.40;;;;;;;17.43;56.75;99373.81;6975257;28;20832;-78
2022/06/11 01:53:42;;;;;;;6.47;3.37;;;;;;;17.31;56.97;99346.53;6975342;28;20209;-80
2022/06/11 01:57:35;;;;;;;3.63;3.33;;;;;;;17.62;56.81;99375.38;6976137;28;20279;-80
2022/06/11 02:01:04;;;;;;;6.50;3.40;;;;;;;17.58;56.39;99357.84;6976325;28;21135;-79
2022/06/11 02:04:38;;;;;;;4.33;3.47;;;;;;;17.41;56.17;99340.53;6975512;28;20237;-80
2022/06/11 02:08:04;;;;;;;7.03;3.40;;;;;;;17.80;55.98;99367.91;6974996;28;20205;-80
2022/06/11 02:11:33;;;;;;;3.87;3.50;;;;;;;18.06;55.30;99356.53;6976064;28;20236;-80
2022/06/11 02:14:57;;;;;;;3.40;3.10;;;;;;;18.19;54.75;99367.19;6976385;28;20533;-80
2022/06/11 02:18:20;;;;;;;4.90;3.27;;;;;;;18.21;54.41;99335.00;6975252;28;20210;-80
2022/06/11 02:21:49;;;;;;;3.60;3.30;;;;;;;18.64;53.59;99367.31;6975883;28;20320;-80
2022/06/11 02:25:16;;;;;;;7.10;3.40;;;;;;;18.44;53.59;99359.53;6976347;28;20300;-80
2022/06/11 02:28:43;;;;;;;4.80;3.10;;;;;;;18.08;54.62;99373.47;6980700;28;20213;-80
2022/06/11 02:32:07;;;;;;;3.53;3.23;;;;;;;17.97;54.73;99370.75;6981496;28;20226;-79
2022/06/11 02:35:33;;;;;;;3.50;3.20;;;;;;;18.07;54.73;99369.09;6981181;28;20293;-80
2022/06/11 02:38:56;;;;;;;3.50;3.20;;;;;;;17.87;54.42;99351.44;6980684;28;20289;-79
2022/06/11 02:42:20;;;;;;;6.63;3.20;;;;;;;18.29;54.11;99370.09;6981133;28;20691;-80
2022/06/11 02:45:42;;;;;;;4.33;3.30;;;;;;;18.43;53.62;99373.44;6980986;28;20236;-80
2022/06/11 02:49:04;;;;;;;4.17;3.57;;;;;;;17.95;54.29;99368.28;6981089;28;20329;-80
2022/06/11 02:52:26;;;;;;;4.57;3.67;;;;;;;17.99;54.84;99347.63;6982552;28;20315;-80
2022/06/11 02:55:50;;;;;;;5.73;3.30;;;;;;;17.74;55.11;99324.41;6982009;28;20209;-80
2022/06/11 02:59:12;;;;;;;3.70;3.40;;;;;;;18.16;54.58;99373.09;6981828;28;20197;-79
2022/06/11 03:02:34;;;;;;;3.70;3.40;;;;;;;17.94;54.43;99363.06;6982756;28;20257;-80
2022/06/11 03:05:55;;;;;;;4.70;4.33;;;;;;;17.86;54.92;99356.06;6982160;28;20233;-80
2022/06/11 03:09:20;;;;;;;5.13;3.50;;;;;;;17.58;56.06;99375.03;6981633;28;20204;-80
2022/06/11 03:12:43;;;;;;;3.90;3.50;;;;;;;17.92;55.08;99367.94;6982447;28;20263;-80
2022/06/11 03:16:05;;;;;;;5.53;3.53;;;;;;;18.08;54.23;99373.47;6981722;28;20287;-80
2022/06/11 03:19:27;;;;;;;3.97;3.63;;;;;;;18.14;54.27;99382.59;6981121;28;20340;-80
2022/06/11 03:22:49;;;;;;;4.47;4.07;;;;;;;17.99;54.80;99379.53;6981301;28;20256;-80
2022/06/11 03:26:11;;;;;;;7.97;4.07;;;;;;;17.84;54.50;99376.47;6980624;28;20237;-80
2022/06/11 03:29:34;;;;;;;4.17;3.40;;;;;;;17.94;55.13;99380.28;6977481;28;20213;-80
2022/06/11 03:32:56;;;;;;;6.27;4.03;;;;;;;17.97;54.69;99368.00;6952271;28;20593;-80
2022/06/11 03:36:18;;;;;;;3.90;3.57;;;;;;;17.34;56.00;99356.94;6953143;28;20264;-80
2022/06/11 03:39:40;;;;;;;6.43;4.03;;;;;;;17.45;56.26;99363.53;6953011;28;20296;-79
2022/06/11 03:43:02;;;;;;;4.90;3.50;;;;;;;17.47;56.26;99388.66;6952656;28;20220;-80
2022/06/11 03:46:25;;;;;;;5.03;3.93;;;;;;;17.37;56.96;99393.81;6957086;28;20247;-80
2022/06/11 03:49:46;;;;;;;4.77;3.97;;;;;;;17.47;56.80;99385.94;6963027;28;20572;-80
2022/06/11 03:53:09;;;;;;;4.13;3.50;;;;;;;17.76;55.76;99385.00;6957420;28;20239;-80
2022/06/11 03:56:31;;;;;;;4.40;4.10;;;;;;;17.89;55.29;99404.69;6968518;28;20213;-81
2022/06/11 03:59:53;;;;;;;5.03;3.90;;;;;;;18.02;55.33;99407.19;6966416;28;20230;-80
2022/06/11 04:03:17;;;;;;;7.50;3.80;;;;;;;18.13;54.95;99413.69;6966116;28;20205;-80
2022/06/11 04:06:41;;;;;;;7.87;4.30;;;;;;;17.88;55.98;99410.38;6996652;28;20287;-80
2022/06/11 04:10:05;;;;;;;5.60;4.00;;;;;;;17.71;56.74;99412.16;6995483;28;20248;-81
2022/06/11 04:13:28;;;;;;;5.67;3.83;;;;;;;17.14;56.42;99331.91;6981471;28;20270;-80
2022/06/11 04:16:52;;;;;;;6.90;4.00;;;;;;;17.92;56.26;99420.59;6977438;28;20244;-80
2022/06/11 04:20:16;;;;;;;4.83;4.00;;;;;;;17.86;56.96;99415.25;6975677;28;20220;-80
2022/06/11 04:23:39;;;;;;;4.60;4.07;;;;;;;17.68;57.45;99418.91;6976795;28;20240;-79
2022/06/11 04:27:04;;;;;;;4.47;3.80;;;;;;;17.99;56.39;99428.66;6975672;28;20683;-79
2022/06/11 04:30:27;;;;;;;6.53;4.53;;;;;;;17.90;57.11;99421.88;6975551;28;20323;-79
2022/06/11 04:33:48;;;;;;;4.80;4.20;;;;;;;18.06;56.32;99396.63;6976709;28;20609;-80
2022/06/11 04:37:13;;;;;;;7.97;4.37;;;;;;;18.19;56.39;99401.81;6976808;28;20288;-79
2022/06/11 04:40:35;;;;;;;6.13;4.37;;;;;;;18.26;56.47;99405.25;6977208;28;20230;-81
2022/06/11 04:43:56;;;;;;;5.90;3.80;;;;;;;18.68;55.25;99423.94;6978268;28;20250;-80
2022/06/11 04:47:22;;;;;;;5.83;4.23;;;;;;;19.20;54.12;99421.97;6978571;28;20198;-80
2022/06/11 04:50:44;;;;;;;3.83;3.37;;;;;;;19.62;53.05;99424.13;6978044;28;20229;-80
2022/06/11 04:54:07;;;;;;;3.33;3.03;;;;;;;19.58;52.53;99419.41;6976957;28;20234;-80
2022/06/11 04:57:29;;;;;;;4.77;3.43;;;;;;;20.22;51.12;99433.31;6976963;28;20280;-80
2022/06/11 05:00:51;;;;;;;4.67;3.30;;;;;;;20.67;50.31;99431.22;6977558;28;20311;-80
2022/06/11 05:04:14;;;;;;;5.27;3.40;;;;;;;21.05;50.14;99436.63;6978536;28;20211;-80
2022/06/11 05:07:36;;;;;;;3.60;3.30;;;;;;;21.14;49.07;99426.88;6978512;28;20285;-80
2022/06/11 05:10:59;;;;;;;6.20;3.30;;;;;;;21.37;48.50;99424.63;6977724;28;20295;-80
2022/06/11 05:14:21;;;;;;;3.53;3.23;;;;;;;21.56;48.69;99423.19;6975191;28;20206;-80
2022/06/11 05:17:43;;;;;;;3.60;3.20;;;;;;;21.82;48.35;99425.09;6975156;28;20272;-80
2022/06/11 05:21:05;;;;;;;3.20;2.90;;;;;;;22.40;46.88;99432.34;6977688;28;20241;-80
2022/06/11 05:24:29;;;;;;;2.73;2.53;;;;;;;23.43;43.57;99430.31;6976868;28;20309;-81
2022/06/11 05:27:52;;;;;;;3.83;2.60;;;;;;;23.75;42.10;99417.16;6976756;28;20572;-79
2022/06/11 05:31:14;;;;;;;3.37;2.80;;;;;;;24.16;41.31;99431.75;6967906;28;20253;-79
2022/06/11 05:34:35;;;;;;;2.83;2.57;;;;;;;24.20;42.00;99424.59;6947343;28;20208;-79
2022/06/11 05:37:59;;;;;;;2.80;2.50;;;;;;;24.31;42.39;99429.78;6945527;28;20259;-79
2022/06/11 05:41:20;;;;;;;5.43;3.07;;;;;;;24.89;39.73;99437.38;6945825;28;20286;-80
2022/06/11 05:44:44;;;;;;;3.77;2.50;;;;;;;24.94;40.14;99417.19;6948404;28;20299;-79
2022/06/11 05:48:07;;;;;;;5.27;2.40;;;;;;;24.39;40.29;99442.19;6974533;28;20661;-79
2022/06/11 05:51:32;;;;;;;4.60;2.70;;;;;;;25.15;39.25;99438.09;6976025;28;20232;-79
2022/06/11 05:54:54;;;;;;;2.87;2.40;;;;;;;25.64;37.84;99428.69;6949112;28;20203;-80
2022/06/11 05:58:17;;;;;;;2.83;2.50;;;;;;;25.91;37.02;99425.47;6968478;28;20198;-81
2022/06/11 06:01:42;;;;;;;3.47;2.57;;;;;;;25.52;37.73;99414.41;6976158;28;20304;-82
2022/06/11 06:05:03;;;;;;;2.53;2.30;;;;;;;25.76;37.41;99414.50;6977451;28;20250;-81
2022/06/11 06:08:25;;;;;;;2.60;2.40;;;;;;;25.79;37.24;99427.75;6976571;28;20204;-82
2022/06/11 06:11:47;;;;;;;4.53;2.53;;;;;;;26.13;37.50;99442.41;6976657;28;20226;-81
2022/06/11 06:15:11;;;;;;;2.43;2.03;;;;;;;26.08;36.40;99403.75;6977063;28;20232;-81
2022/06/11 06:18:34;;;;;;;4.23;2.17;;;;;;;26.53;35.58;99431.75;6975665;28;20209;-81
2022/06/11 06:21:56;;;;;;;4.40;2.50;;;;;;;26.73;35.71;99445.38;6977557;28;20724;-82
2022/06/11 06:25:20;;;;;;;3.53;2.23;;;;;;;26.60;35.79;99412.91;6977000;28;20232;-81
2022/06/11 06:28:42;;;;;;;2.67;2.20;;;;;;;27.01;34.78;99432.63;6976759;28;20223;-80
2022/06/11 06:32:04;;;;;;;4.67;2.30;;;;;;;27.20;35.25;99425.19;6977145;28;20267;-80
2022/06/11 06:35:27;;;;;;;2.97;2.37;;;;;;;27.45;34.65;99439.50;6978553;28;20280;-80
2022/06/11 06:38:50;;;;;;;3.83;2.10;;;;;;;27.49;34.47;99456.34;6976485;28;20259;-82
2022/06/11 06:42:11;;;;;;;2.37;2.10;;;;;;;27.18;35.03;99427.44;6968148;28;20214;-80
2022/06/11 06:45:33;;;;;;;2.77;2.20;;;;;;;26.62;35.06;99426.44;6974227;28;20282;-81
2022/06/11 06:48:55;;;;;;;3.33;2.07;;;;;;;27.85;33.80;99441.66;6975236;28;20236;-80
2022/06/11 06:52:18;;;;;;;3.60;2.20;;;;;;;28.29;32.79;99443.97;6977330;28;20226;-81
2022/06/11 06:55:40;;;;;;;2.67;2.33;;;;;;;27.39;34.95;99449.00;6975688;28;20258;-81
2022/06/11 06:59:02;;;;;;;3.47;2.43;;;;;;;27.71;34.33;99424.13;6976993;28;20249;-81
2022/06/11 07:02:24;;;;;;;3.53;2.73;;;;;;;26.22;37.01;99449.78;6976555;28;20706;-81
2022/06/11 07:05:45;;;;;;;4.77;3.10;;;;;;;27.21;36.97;99441.50;6966030;28;20258;-81
2022/06/11 07:09:09;;;;;;;4.27;3.27;;;;;;;26.13;38.43;99450.72;6974623;28;20282;-81
2022/06/11 07:12:30;;;;;;;5.80;3.90;;;;;;;26.20;38.78;99451.19;6958650;28;20230;-81
2022/06/11 07:15:54;;;;;;;3.10;2.57;;;;;;;26.18;38.51;99434.09;6959937;28;20260;-80
2022/06/11 07:19:18;;;;;;;4.70;2.90;;;;;;;26.70;37.17;99437.69;6981633;28;20297;-80
2022/06/11 07:22:43;;;;;;;4.40;3.03;;;;;;;28.13;34.53;99437.88;6977219;28;20223;-81
2022/06/11 07:26:09;;;;;;;4.10;2.40;;;;;;;28.64;34.94;99433.06;6960193;28;20269;-81
2022/06/11 07:29:33;;;;;;;3.13;2.40;;;;;;;29.40;31.79;99438.69;6981434;28;20685;-81
2022/06/11 07:32:58;;;;;;;4.53;2.77;;;;;;;29.00;32.15;99430.41;6980255;28;20230;-80
2022/06/11 07:36:20;;;;;;;2.50;2.30;;;;;;;28.87;32.29;99436.75;6980985;28;20210;-80
2022/06/11 07:39:41;;;;;;;3.67;2.30;;;;;;;28.66;32.99;99430.00;6979983;28;20214;-81
2022/06/11 07:43:06;;;;;;;3.33;2.27;;;;;;;29.01;33.38;99438.44;6981937;28;20214;-81
2022/06/11 07:46:28;;;;;;;2.67;2.23;;;;;;;30.03;31.64;99430.25;6980972;28;20317;-80
2022/06/11 07:49:49;;;;;;;6.07;4.33;;;;;;;29.81;32.99;99428.31;6979399;28;20683;-81
2022/06/11 07:53:11;;;;;;;5.27;3.83;;;;;;;29.96;32.08;99427.09;6982960;28;20208;-80
2022/06/11 07:56:33;;;;;;;6.37;3.03;;;;;;;29.04;33.54;99429.50;6985135;28;20657;-80
2022/06/11 08:00:03;;;;;;;4.13;2.80;;;;;;;29.49;31.95;99422.91;6976623;28;20300;-80
2022/06/11 08:03:26;;;;;;;2.57;2.20;;;;;;;30.14;29.69;99435.25;6979709;28;20255;-81
2022/06/11 08:06:47;;;;;;;2.50;2.30;;;;;;;29.91;30.11;99428.03;6984436;28;20229;-80
2022/06/11 08:10:10;;;;;;;5.10;2.57;;;;;;;29.76;29.77;99383.94;6983829;28;20244;-81
2022/06/11 08:13:31;;;;;;;2.60;2.00;;;;;;;30.22;30.58;99412.25;6984342;28;20271;-80
2022/06/11 08:16:54;;;;;;;4.13;2.60;;;;;;;29.67;31.66;99438.63;6989444;28;20212;-80
2022/06/11 08:20:18;;;;;;;4.13;2.20;;;;;;;30.07;29.78;99434.06;6989781;28;20305;-80
2022/06/11 08:23:41;;;;;;;3.47;2.30;;;;;;;31.14;28.94;99440.84;6984120;28;20273;-81
2022/06/11 08:27:03;;;;;;;3.20;2.10;;;;;;;31.37;27.84;99434.03;6983516;28;20229;-80
2022/06/11 08:30:27;;;;;;;2.13;1.90;;;;;;;30.84;27.46;99413.88;6982481;28;20323;-81
2022/06/11 08:33:50;;;;;;;3.03;2.40;;;;;;;29.83;28.30;99434.38;6984222;28;20202;-81
2022/06/11 08:37:11;;;;;;;5.10;2.27;;;;;;;28.87;30.57;99418.16;6982594;28;20206;-80
2022/06/11 08:40:35;;;;;;;2.77;2.07;;;;;;;29.38;29.69;99418.72;6981840;28;20230;-81
2022/06/11 08:44:02;;;;;;;2.60;2.00;;;;;;;29.20;30.78;99424.44;6995544;28;20215;-82
2022/06/11 08:47:27;;;;;;;2.60;2.10;;;;;;;30.23;29.48;99411.13;6992750;28;20224;-81
2022/06/11 08:50:59;;;;;;;6.00;2.37;;;;;;;30.75;28.72;99417.78;6988930;28;20229;-81
2022/06/11 08:54:24;;;;;;;4.47;1.87;;;;;;;30.99;28.24;99407.03;6993761;28;20214;-81
2022/06/11 08:57:54;;;;;;;3.13;2.20;;;;;;;31.85;27.38;99398.50;6994223;28;20206;-81
2022/06/11 09:01:25;;;;;;;4.53;2.30;;;;;;;32.52;26.35;99427.44;6977851;28;20277;-81
2022/06/11 09:04:59;;;;;;;3.53;2.00;;;;;;;32.52;25.82;99419.06;6978602;28;20337;-81
2022/06/11 09:08:33;;;;;;;3.67;2.00;;;;;;;32.25;26.43;99413.09;6976905;28;20259;-79
2022/06/11 09:12:04;;;;;;;4.87;1.90;;;;;;;32.46;26.63;99416.78;6974842;28;20272;-80
2022/06/11 09:15:32;;;;;;;2.73;1.87;;;;;;;31.33;27.33;99402.41;6980193;28;20271;-80
2022/06/11 09:19:09;;;;;;;4.13;1.90;;;;;;;31.57;26.57;99415.88;6979251;28;20214;-80
2022/06/11 09:22:42;;;;;;;2.10;1.90;;;;;;;30.51;27.62;99392.25;6976960;28;20241;-79
2022/06/11 09:26:16;;;;;;;2.57;1.90;;;;;;;31.58;26.21;99412.75;6978561;28;20307;-79
2022/06/11 09:29:47;;;;;;;2.20;2.00;;;;;;;31.54;26.07;99414.53;6975396;28;20199;-80
2022/06/11 09:33:13;;;;;;;3.63;1.93;;;;;;;30.56;28.19;99406.03;6979940;28;20192;-80
2022/06/11 09:36:38;;;;;;;4.77;2.13;;;;;;;31.37;26.51;99408.16;6978747;28;20194;-80
2022/06/11 09:44:01;;;;;;;3.67;1.93;;;;;;;32.00;24.98;99358.94;6950230;28;20254;-80
2022/06/11 09:47:29;;;;;;;3.80;1.90;;;;;;;31.25;25.53;99372.53;6951146;28;20205;-81
2022/06/11 09:50:53;;;;;;;6.17;2.10;;;;;;;30.84;26.94;99402.75;6954466;28;20221;-79
2022/06/11 09:54:36;;;;;;;2.87;1.90;;;;;;;29.94;27.72;99399.59;6979772;28;20235;-80
2022/06/11 09:58:04;;;;;;;3.67;2.00;;;;;;;31.01;26.46;99386.06;6983967;28;20207;-80
2022/06/11 10:01:31;;;;;;;4.83;2.20;;;;;;;32.80;24.34;99403.56;6977466;28;20705;-80
2022/06/11 10:04:54;;;;;;;3.20;1.77;;;;;;;32.97;25.03;99395.06;6970828;28;20222;-80
2022/06/11 10:08:19;;;;;;;2.63;1.80;;;;;;;33.09;24.24;99402.72;6949852;28;20233;-80
2022/06/11 10:11:45;;;;;;;4.57;2.10;;;;;;;32.80;24.12;99397.13;6962948;28;20225;-80
2022/06/11 10:15:12;;;;;;;3.00;2.10;;;;;;;33.35;23.69;99389.41;6977441;28;20312;-81
2022/06/11 10:18:35;;;;;;;4.90;2.00;;;;;;;32.97;23.67;99402.63;6976935;28;20208;-79
2022/06/11 10:22:00;;;;;;;4.00;2.03;;;;;;;32.82;24.41;99397.59;6977346;28;20293;-82
2022/06/11 10:25:27;;;;;;;2.70;2.00;;;;;;;33.47;23.42;99404.31;6978311;28;20201;-78
2022/06/11 10:28:55;;;;;;;2.67;1.90;;;;;;;34.20;23.07;99402.69;6982307;28;20214;-78
2022/06/11 10:32:21;;;;;;;3.17;1.93;;;;;;;33.84;23.19;99402.56;6983717;28;20730;-78
2022/06/11 10:35:46;;;;;;;3.17;2.30;;;;;;;33.78;23.97;99393.53;6978972;28;20697;-79
2022/06/11 10:39:13;;;;;;;2.73;1.87;;;;;;;33.37;23.74;99401.91;6977046;28;20201;-79
2022/06/11 10:42:38;;;;;;;6.60;2.47;;;;;;;32.97;23.77;99399.84;6977798;28;20713;-79
2022/06/11 10:46:00;;;;;;;2.90;1.97;;;;;;;33.01;24.75;99396.03;6978155;28;20379;-78
2022/06/11 10:49:23;;;;;;;3.03;1.97;;;;;;;33.21;23.86;99395.25;6982691;28;20206;-79
2022/06/11 10:52:52;;;;;;;2.80;2.10;;;;;;;32.55;25.07;99392.47;6982503;28;20721;-78
2022/06/11 10:56:19;;;;;;;3.43;2.00;;;;;;;32.25;25.85;99394.34;6981475;28;20194;-79
2022/06/11 10:59:42;;;;;;;3.97;2.00;;;;;;;33.48;23.46;99393.94;6981167;28;20197;-78
2022/06/11 11:03:07;;;;;;;3.60;2.33;;;;;;;32.63;24.77;99383.22;6981540;28;20264;-80
2022/06/11 11:06:32;;;;;;;3.03;2.30;;;;;;;33.12;23.84;99388.91;6982910;28;20233;-79
2022/06/11 11:10:01;;;;;;;3.47;2.53;;;;;;;33.58;23.66;99374.78;6983058;28;20273;-79
2022/06/11 11:13:26;;;;;;;2.30;2.00;;;;;;;32.64;24.21;99387.63;6984595;28;20201;-79
2022/06/11 11:16:51;;;;;;;4.50;2.70;;;;;;;32.77;24.27;99386.66;6983463;28;20299;-79
2022/06/11 11:23:59;;;;;;;4.37;1.80;;;;;;;33.65;22.91;99371.41;6979259;28;20189;-78
2022/06/11 11:27:26;;;;;;;4.93;2.07;;;;;;;33.51;23.99;99360.53;6991368;28;20272;-79
2022/06/11 11:30:57;;;;;;;4.07;2.20;;;;;;;32.72;23.71;99345.69;6994658;28;20215;-79
2022/06/11 11:34:25;;;;;;;4.07;2.07;;;;;;;32.76;23.78;99362.63;6995360;28;20646;-79
2022/06/11 11:37:48;;;;;;;3.63;2.43;;;;;;;32.39;24.77;99369.84;6989717;28;20212;-78
2022/06/11 11:41:23;;;;;;;3.10;2.20;;;;;;;32.80;24.47;99321.72;6993486;28;20220;-79
2022/06/11 11:44:49;;;;;;;3.07;2.00;;;;;;;34.48;23.50;99354.13;6994973;28;20237;-79
2022/06/11 11:48:16;;;;;;;3.30;2.07;;;;;;;34.53;23.49;99350.25;6994154;28;20206;-79
2022/06/11 11:51:40;;;;;;;4.07;2.20;;;;;;;34.45;23.32;99331.59;6995219;28;20688;-79
2022/06/11 11:55:10;;;;;;;3.70;1.83;;;;;;;34.19;23.53;99343.06;6983889;28;20221;-78
2022/06/11 11:58:33;;;;;;;2.27;1.87;;;;;;;34.39;23.17;99347.81;6984209;28;20201;-79
2022/06/11 12:02:04;;;;;;;3.33;1.67;;;;;;;35.19;21.00;99346.06;6984862;28;20231;-79
2022/06/11 12:05:28;;;;;;;2.50;1.70;;;;;;;34.40;22.09;99315.84;6989707;28;20206;-79
2022/06/11 12:08:52;;;;;;;3.00;1.80;;;;;;;33.13;23.96;99339.41;6983025;28;20371;-78
2022/06/11 12:12:19;;;;;;;2.83;1.67;;;;;;;33.15;23.63;99335.13;6983569;28;20237;-78
2022/06/11 12:15:50;;;;;;;2.73;2.10;;;;;;;34.15;23.26;99324.53;6985339;28;20295;-78
2022/06/11 12:19:18;;;;;;;3.03;2.00;;;;;;;34.16;23.12;99329.78;6986565;28;20183;-80
2022/06/11 12:22:44;;;;;;;3.27;2.00;;;;;;;33.88;23.83;99316.75;6984816;28;20236;-79
2022/06/11 12:26:08;;;;;;;2.83;2.10;;;;;;;32.84;24.02;99325.47;6969014;28;20191;-79
2022/06/11 12:29:33;;;;;;;3.10;1.90;;;;;;;32.98;24.14;99312.88;6957135;28;20286;-79
2022/06/11 12:32:55;;;;;;;2.23;2.00;;;;;;;33.26;23.89;99327.13;6971912;28;20215;-78
2022/06/11 12:36:37;;;;;;;2.17;1.63;;;;;;;34.25;22.44;99321.28;6958128;28;20270;-78
2022/06/11 12:40:04;;;;;;;3.20;2.13;;;;;;;33.87;22.74;99315.09;6952340;28;20227;-78
2022/06/11 12:43:40;;;;;;;4.03;2.03;;;;;;;34.41;23.06;99306.25;6953557;28;20214;-78
2022/06/11 12:47:08;;;;;;;3.17;1.90;;;;;;;35.02;22.15;99316.28;6952816;28;20679;-78
2022/06/11 12:50:41;;;;;;;2.83;2.07;;;;;;;35.26;21.80;99312.66;6952872;28;20320;-79
2022/06/11 12:54:14;;;;;;;4.70;1.90;;;;;;;34.64;22.62;99307.44;6959438;28;20258;-79
2022/06/11 12:57:58;;;;;;;3.47;2.00;;;;;;;34.27;22.76;99290.97;6976770;28;20210;-79
2022/06/11 13:01:28;;;;;;;4.03;2.17;;;;;;;34.07;22.54;99312.25;6992770;28;20238;-78
2022/06/11 13:05:03;;;;;;;4.97;1.87;;;;;;;33.91;22.80;99310.47;6989852;28;20229;-77
2022/06/11 13:08:35;;;;;;;2.80;2.20;;;;;;;32.54;24.26;99321.00;6985667;28;20648;-78
2022/06/11 13:12:11;;;;;;;3.20;2.00;;;;;;;33.43;23.32;99307.47;6989026;28;20282;-78
2022/06/11 13:15:38;;;;;;;2.33;1.80;;;;;;;33.91;23.05;99297.28;6985360;28;20669;-79
2022/06/11 13:19:13;;;;;;;3.00;1.80;;;;;;;33.48;23.54;99304.47;6988730;28;20201;-78
2022/06/11 13:22:40;;;;;;;2.70;1.93;;;;;;;33.78;23.23;99306.00;6983971;28;20275;-79
2022/06/11 13:26:18;;;;;;;3.20;2.03;;;;;;;33.75;22.91;99279.50;6993425;28;20210;-79
2022/06/11 13:29:54;;;;;;;2.43;1.63;;;;;;;34.52;22.10;99299.03;6984629;28;20197;-79
2022/06/11 13:33:27;;;;;;;2.97;2.00;;;;;;;34.10;22.74;99289.16;6973064;28;20210;-79
2022/06/11 13:36:58;;;;;;;2.77;1.90;;;;;;;33.96;23.16;99311.06;6948308;28;20202;-79
2022/06/11 13:40:25;;;;;;;2.13;1.60;;;;;;;34.45;22.14;99292.38;6952716;28;20222;-79
2022/06/11 13:44:03;;;;;;;3.53;1.90;;;;;;;34.81;21.80;99253.16;6950101;28;20215;-79
2022/06/11 13:47:37;;;;;;;2.37;1.73;;;;;;;34.52;22.19;99285.03;6950073;28;20698;-78
2022/06/11 13:51:07;;;;;;;3.03;2.07;;;;;;;34.01;23.16;99288.44;6950298;28;20264;-79
2022/06/11 13:58:39;;;;;;;2.70;1.90;;;;;;;34.47;22.26;99281.63;6949076;28;20187;-79
2022/06/11 14:02:25;;;;;;;2.50;2.07;;;;;;;34.69;21.88;99276.38;6945548;28;20234;-79
2022/06/11 14:05:50;;;;;;;3.93;2.17;;;;;;;33.74;23.23;99272.28;6949823;28;20210;-78
2022/06/11 14:13:05;;;;;;;5.03;2.10;;;;;;;34.34;22.31;99272.44;6957094;28;20199;-79
2022/06/11 14:16:41;;;;;;;4.60;1.90;;;;;;;34.39;22.37;99277.81;6957590;28;20211;-79
2022/06/11 14:20:25;;;;;;;3.93;2.20;;;;;;;34.06;23.14;99265.00;6950683;28;20219;-79
2022/06/11 14:23:51;;;;;;;7.67;2.13;;;;;;;34.58;22.43;99269.63;6948580;28;20187;-79
2022/06/11 14:27:27;;;;;;;4.90;2.10;;;;;;;34.66;21.90;99271.47;6947685;28;20349;-79
2022/06/11 14:31:07;;;;;;;4.10;2.50;;;;;;;34.26;22.94;99264.13;6947226;28;20265;-79
2022/06/11 14:34:31;;;;;;;3.30;2.10;;;;;;;34.21;22.72;99259.56;6948365;28;20282;-79
2022/06/11 14:37:52;;;;;;;2.63;2.10;;;;;;;34.13;22.67;99249.28;6947668;28;20231;-79
2022/06/11 14:41:36;;;;;;;3.00;2.10;;;;;;;34.25;22.98;99262.47;6963697;28;20253;-79
2022/06/11 14:45:35;;;;;;;5.53;2.27;;;;;;;33.44;23.42;99255.97;6946164;28;20301;-79
2022/06/11 14:48:58;;;;;;;3.97;2.10;;;;;;;33.10;24.39;99261.81;6946816;28;20222;-79
2022/06/11 14:52:36;;;;;;;4.53;2.00;;;;;;;33.61;24.29;99262.19;6948265;28;20765;-78
2022/06/11 14:56:08;;;;;;;2.00;1.80;;;;;;;33.34;24.06;99237.63;6947120;28;20203;-78
2022/06/11 14:59:48;;;;;;;3.37;2.00;;;;;;;33.47;23.46;99249.66;6947898;28;20527;-79
2022/06/11 15:03:48;;;;;;;4.87;2.20;;;;;;;33.92;22.37;99245.75;6948007;28;20203;-79
2022/06/11 15:07:20;;;;;;;2.20;1.90;;;;;;;33.11;24.38;99250.31;6947162;28;20592;-79
2022/06/11 15:10:43;;;;;;;4.83;2.00;;;;;;;33.71;23.99;99255.34;6948252;28;20238;-79
2022/06/11 15:14:26;;;;;;;4.30;2.37;;;;;;;33.64;23.59;99249.50;6946915;28;20675;-78
2022/06/11 15:17:53;;;;;;;2.77;2.30;;;;;;;33.87;23.64;99253.53;6945265;28;20301;-79
2022/06/11 15:21:24;;;;;;;2.13;1.90;;;;;;;33.38;24.05;99244.16;6947355;28;20262;-79
2022/06/11 15:24:49;;;;;;;3.17;2.10;;;;;;;33.95;23.51;99241.47;6947664;28;20217;-79
2022/06/11 15:28:10;;;;;;;3.60;1.97;;;;;;;33.13;24.25;99249.97;6949999;28;20219;-79
2022/06/11 15:31:33;;;;;;;2.93;2.10;;;;;;;32.94;24.48;99247.66;6975106;28;20253;-79
2022/06/11 15:34:58;;;;;;;3.83;2.07;;;;;;;32.59;24.82;99248.19;6979066;28;20247;-82
2022/06/11 15:38:23;;;;;;;8.23;3.00;;;;;;;32.67;24.87;99248.13;6980381;28;20333;-79
2022/06/11 15:41:45;;;;;;;3.63;1.90;;;;;;;32.32;25.23;99245.91;6980884;28;20232;-79
2022/06/11 15:45:10;;;;;;;2.97;2.20;;;;;;;32.74;24.48;99237.25;6981081;28;20234;-79
2022/06/11 15:48:34;;;;;;;4.13;2.50;;;;;;;32.09;25.21;99236.97;6979814;28;20594;-79
2022/06/11 15:52:21;;;;;;;2.97;1.73;;;;;;;32.53;24.79;99244.78;6980952;28;20697;-79
2022/06/11 15:55:44;;;;;;;3.33;2.10;;;;;;;33.21;23.66;99230.34;6952905;28;20310;-79
2022/06/11 15:59:09;;;;;;;4.57;2.60;;;;;;;32.94;24.78;99225.28;6952329;28;20186;-79
2022/06/11 16:02:32;;;;;;;3.53;2.63;;;;;;;32.42;25.61;99212.81;6974272;28;20220;-79
2022/06/11 16:05:57;;;;;;;2.80;2.07;;;;;;;32.92;25.09;99230.41;6980194;28;20245;-78
2022/06/11 16:09:22;;;;;;;4.30;2.23;;;;;;;32.00;26.68;99225.00;6977842;28;20227;-78
2022/06/11 16:12:45;;;;;;;3.97;2.13;;;;;;;31.89;26.21;99220.94;6978503;28;20227;-78
2022/06/11 16:16:12;;;;;;;2.00;1.80;;;;;;;31.70;26.73;99226.06;6982937;28;20208;-78
2022/06/11 16:19:35;;;;;;;4.63;2.10;;;;;;;32.27;25.46;99216.22;6976416;28;20292;-77
2022/06/11 16:22:59;;;;;;;3.50;2.17;;;;;;;32.69;25.26;99226.28;6977048;28;20288;-79
2022/06/11 16:26:22;;;;;;;6.53;3.07;;;;;;;31.93;26.18;99243.41;6979879;28;20257;-79